Aviation Digital Data Service (ADDS)

Output produced by METARs form (1557 UTC 30 May 2016)
found at http://www.aviationweather.gov/adds/metars/
 
KSBY 301554Z 18004KT 10SM -RA FEW008 BKN065 OVC075 22/21 A3002 RMK AO2 SLP166 P0009 T02220206
KSBY 301448Z 3015/3112 17003KT 3SM -RA BR SCT007 OVC015 
     TEMPO 3015/3016 1SM RA BR BKN007 
     FM301800 15003KT 4SM -RA BR OVC010 
     FM310100 VRB04KT 4SM -RA BR OVC003 
     FM310500 00000KT 1SM -RA BR OVC003